Time;durP1;ratioP1;P1;durP2;ratioP2;P2;SDS_P1;SDS_P2;PMS_P1;PMS_P2;Temp;Humidity;BMP_temperature;BMP_pressure;BME280_temperature;BME280_humidity;BME280_pressure;Samples;Min_cycle;Max_cycle;Signal;HPM_P1;HPM_P2
2021/03/10 00:00:21;;;;;;;26.80;12.83;;;3.60;97.30;;;;;;5021544;28;20177;-80
2021/03/10 00:02:47;;;;;;;21.07;12.00;;;3.60;97.30;;;;;;5021523;28;20177;-80
2021/03/10 00:05:13;;;;;;;26.20;12.43;;;3.60;97.30;;;;;;5020507;28;20440;-80
2021/03/10 00:07:39;;;;;;;29.80;12.73;;;3.50;97.30;;;;;;5020937;28;20223;-81
2021/03/10 00:10:10;;;;;;;25.63;11.83;;;3.50;97.30;;;;;;5022634;28;20181;-81
2021/03/10 00:12:36;;;;;;;24.33;13.80;;;3.50;97.30;;;;;;5021352;28;20412;-81
2021/03/10 00:15:06;;;;;;;28.10;13.30;;;3.50;97.30;;;;;;5020854;28;21008;-80
2021/03/10 00:17:33;;;;;;;26.23;12.00;;;3.50;97.30;;;;;;5024444;28;20515;-81
2021/03/10 00:19:59;;;;;;;28.40;11.77;;;3.50;97.30;;;;;;5026285;28;20418;-81
2021/03/10 00:22:24;;;;;;;24.57;12.50;;;3.50;97.30;;;;;;5026125;28;21010;-80
2021/03/10 00:24:50;;;;;;;27.50;12.60;;;3.40;97.30;;;;;;5024851;28;20468;-80
2021/03/10 00:27:25;;;;;;;28.80;12.80;;;3.40;97.30;;;;;;5024615;28;20562;-81
2021/03/10 00:29:52;;;;;;;26.97;13.67;;;3.40;97.30;;;;;;5025772;28;20215;-81
2021/03/10 00:32:18;;;;;;;26.03;12.30;;;3.40;97.30;;;;;;5023937;28;20494;-81
2021/03/10 00:34:43;;;;;;;29.57;14.20;;;3.40;97.30;;;;;;5023443;28;20623;-80
2021/03/10 00:37:09;;;;;;;32.30;14.13;;;3.40;97.30;;;;;;5023807;28;20561;-80
2021/03/10 00:39:35;;;;;;;27.23;13.63;;;3.40;97.30;;;;;;5024276;28;20684;-82
2021/03/10 00:42:00;;;;;;;28.43;12.90;;;3.40;97.30;;;;;;5023722;28;20427;-81
2021/03/10 00:44:26;;;;;;;32.47;15.20;;;3.50;97.30;;;;;;5024363;28;20590;-81
2021/03/10 00:46:52;;;;;;;28.23;14.27;;;3.50;97.30;;;;;;5023850;28;20188;-80
2021/03/10 00:49:17;;;;;;;35.30;14.67;;;3.50;97.30;;;;;;5023057;28;20703;-81
2021/03/10 00:51:43;;;;;;;34.30;15.40;;;3.50;97.30;;;;;;5023791;28;20209;-81
2021/03/10 00:54:08;;;;;;;32.37;14.20;;;3.60;97.30;;;;;;5023595;28;20228;-80
2021/03/10 00:56:34;;;;;;;25.10;13.27;;;3.60;97.30;;;;;;5023582;28;20208;-80
2021/03/10 00:59:02;;;;;;;29.37;12.83;;;3.60;97.30;;;;;;5023253;28;20201;-80
2021/03/10 01:01:27;;;;;;;28.87;13.80;;;3.60;97.30;;;;;;5023162;28;20752;-80
2021/03/10 01:03:53;;;;;;;26.63;11.83;;;3.50;97.30;;;;;;5023347;28;20469;-80
2021/03/10 01:06:23;;;;;;;29.87;12.80;;;3.60;97.30;;;;;;5016544;28;20181;-80
2021/03/10 01:08:51;;;;;;;28.77;13.13;;;3.50;97.30;;;;;;5016296;28;20173;-81
2021/03/10 01:11:18;;;;;;;36.47;15.83;;;3.50;97.30;;;;;;5024240;28;20451;-81
2021/03/10 01:13:44;;;;;;;29.27;12.90;;;3.50;97.30;;;;;;5025908;28;20407;-80
2021/03/10 01:16:10;;;;;;;31.07;14.50;;;3.40;97.30;;;;;;5024366;28;20626;-81
2021/03/10 01:18:36;;;;;;;34.70;14.57;;;3.40;97.30;;;;;;5023512;28;20446;-81
2021/03/10 01:21:02;;;;;;;32.37;14.30;;;3.40;97.30;;;;;;5024740;28;20594;-81
2021/03/10 01:23:28;;;;;;;29.53;13.00;;;3.30;97.30;;;;;;5024581;28;20435;-81
2021/03/10 01:25:53;;;;;;;29.83;13.23;;;3.30;97.30;;;;;;5023943;28;20694;-81
2021/03/10 01:28:19;;;;;;;31.10;14.27;;;3.30;97.30;;;;;;5022783;28;20185;-80
2021/03/10 01:30:44;;;;;;;28.70;13.40;;;3.30;97.30;;;;;;5023683;28;20301;-80
2021/03/10 01:33:10;;;;;;;27.53;13.87;;;3.30;97.30;;;;;;5023869;28;20184;-81
2021/03/10 01:35:37;;;;;;;35.40;14.93;;;3.20;97.30;;;;;;5023543;28;20212;-83
2021/03/10 01:38:02;;;;;;;30.43;13.63;;;3.20;97.30;;;;;;5024152;28;20251;-81
2021/03/10 01:40:28;;;;;;;27.93;13.50;;;3.20;97.30;;;;;;5024091;28;20425;-81
2021/03/10 01:42:54;;;;;;;32.30;15.00;;;3.20;97.30;;;;;;5024758;28;20655;-80
2021/03/10 01:45:22;;;;;;;32.00;14.23;;;3.20;97.30;;;;;;5024246;28;20436;-81
2021/03/10 01:47:50;;;;;;;31.90;14.87;;;3.20;97.30;;;;;;5023545;28;20536;-82
2021/03/10 01:50:17;;;;;;;29.80;14.60;;;3.10;97.30;;;;;;5027357;28;20453;-80
2021/03/10 01:52:46;;;;;;;25.30;13.00;;;3.10;97.30;;;;;;5035024;28;20420;-82
2021/03/10 01:55:12;;;;;;;33.27;15.10;;;3.00;97.30;;;;;;5036235;28;20503;-82
2021/03/10 01:57:38;;;;;;;30.73;14.73;;;3.00;97.30;;;;;;5034827;28;20489;-82
2021/03/10 02:00:07;;;;;;;35.17;15.30;;;3.00;97.30;;;;;;5020751;28;20420;-81
2021/03/10 02:02:33;;;;;;;34.37;15.87;;;3.00;97.30;;;;;;5019633;28;20451;-81
2021/03/10 02:04:59;;;;;;;37.00;14.83;;;3.00;97.30;;;;;;5020349;28;21230;-81
2021/03/10 02:07:37;;;;;;;35.63;15.43;;;3.00;97.30;;;;;;5020563;28;20272;-81
2021/03/10 02:10:24;;;;;;;31.77;14.57;;;3.00;97.30;;;;;;5020658;28;20409;-81
2021/03/10 02:13:23;;;;;;;33.53;14.70;;;3.00;97.30;;;;;;5022594;28;20397;-81
2021/03/10 02:16:11;;;;;;;41.07;16.30;;;2.90;97.30;;;;;;5020914;28;20479;-81
2021/03/10 02:18:43;;;;;;;42.90;15.63;;;2.80;97.30;;;;;;5022045;28;20512;-81
2021/03/10 02:21:32;;;;;;;44.17;17.33;;;2.80;97.30;;;;;;5021178;28;20814;-81
2021/03/10 02:24:06;;;;;;;34.17;17.40;;;2.70;97.30;;;;;;5021394;28;20448;-81
2021/03/10 02:26:34;;;;;;;33.47;16.20;;;2.70;97.30;;;;;;5021805;28;20763;-81
2021/03/10 02:29:11;;;;;;;31.20;14.30;;;2.70;97.30;;;;;;5022056;28;20404;-81
2021/03/10 02:31:42;;;;;;;29.97;14.17;;;2.60;97.30;;;;;;5021503;28;20475;-81
2021/03/10 02:34:09;;;;;;;35.03;16.13;;;2.60;97.30;;;;;;5020849;28;20439;-81
2021/03/10 02:36:35;;;;;;;30.67;13.93;;;2.50;97.30;;;;;;5022042;28;20460;-80
2021/03/10 02:39:03;;;;;;;32.60;14.60;;;2.50;97.30;;;;;;5021386;28;20447;-81
2021/03/10 02:41:31;;;;;;;32.67;14.30;;;2.40;97.30;;;;;;5021386;28;20423;-81
2021/03/10 02:43:57;;;;;;;36.70;14.57;;;2.30;97.30;;;;;;5021405;28;20416;-81
2021/03/10 02:46:25;;;;;;;38.40;15.43;;;2.10;97.30;;;;;;5022871;28;20491;-80
2021/03/10 02:48:51;;;;;;;33.17;16.77;;;2.00;97.30;;;;;;5039850;28;20420;-81
2021/03/10 02:51:17;;;;;;;33.80;15.93;;;2.00;97.30;;;;;;5022782;28;20424;-80
2021/03/10 02:53:44;;;;;;;30.40;13.37;;;1.90;97.30;;;;;;5023009;28;20500;-80
2021/03/10 02:56:13;;;;;;;30.80;15.97;;;1.90;97.30;;;;;;5022041;28;20474;-80
2021/03/10 02:58:40;;;;;;;43.83;17.43;;;1.80;97.30;;;;;;5022627;28;20416;-81
2021/03/10 03:01:07;;;;;;;34.20;14.73;;;1.80;97.30;;;;;;5022977;28;20423;-81
2021/03/10 03:03:33;;;;;;;36.20;14.50;;;1.80;97.30;;;;;;5022623;28;20412;-81
2021/03/10 03:05:59;;;;;;;37.67;16.10;;;1.70;97.30;;;;;;5022283;28;20465;-81
2021/03/10 03:08:47;;;;;;;37.50;15.30;;;1.70;97.30;;;;;;5117680;27;20501;-81
2021/03/10 03:11:13;;;;;;;37.63;15.90;;;1.70;97.30;;;;;;5082855;28;20985;-82
2021/03/10 03:13:39;;;;;;;42.10;18.07;;;1.70;97.30;;;;;;5082559;28;20441;-81
2021/03/10 03:16:05;;;;;;;46.57;17.70;;;1.70;97.30;;;;;;5081339;28;20425;-81
2021/03/10 03:18:31;;;;;;;36.80;16.70;;;1.70;97.30;;;;;;5063292;28;20414;-82
2021/03/10 03:21:00;;;;;;;37.30;16.10;;;1.70;97.30;;;;;;5063231;28;20456;-81
2021/03/10 03:23:27;;;;;;;33.80;13.93;;;1.70;97.30;;;;;;5063348;28;20171;-82
2021/03/10 03:25:55;;;;;;;38.93;17.00;;;1.70;97.30;;;;;;5063049;28;20520;-81
2021/03/10 03:28:24;;;;;;;33.80;16.10;;;1.70;97.30;;;;;;5062889;28;20464;-81
2021/03/10 03:30:52;;;;;;;40.17;17.23;;;1.70;97.30;;;;;;5062822;28;20420;-82
2021/03/10 03:33:21;;;;;;;41.50;17.20;;;1.70;97.30;;;;;;5063261;28;20414;-83
2021/03/10 03:35:51;;;;;;;37.53;15.90;;;1.70;97.30;;;;;;5062536;28;20768;-81
2021/03/10 03:38:17;;;;;;;35.70;15.60;;;1.70;97.30;;;;;;5062716;28;20402;-81
2021/03/10 03:40:43;;;;;;;40.27;16.53;;;1.70;97.30;;;;;;5062090;28;20456;-81
2021/03/10 03:43:11;;;;;;;35.87;16.73;;;1.70;97.30;;;;;;5062074;28;20179;-81
2021/03/10 03:45:38;;;;;;;33.00;15.00;;;1.70;97.30;;;;;;5062292;28;20223;-81
2021/03/10 03:48:04;;;;;;;35.83;16.03;;;1.70;97.30;;;;;;5061354;28;20453;-80
2021/03/10 03:50:30;;;;;;;38.60;15.50;;;1.70;97.30;;;;;;5062086;28;20417;-82
2021/03/10 03:52:56;;;;;;;34.30;15.63;;;1.70;97.30;;;;;;5061771;28;20432;-81
2021/03/10 03:55:22;;;;;;;44.23;16.83;;;1.70;97.30;;;;;;5062043;28;20430;-82
2021/03/10 03:57:50;;;;;;;38.20;15.90;;;1.70;97.30;;;;;;5061464;28;20504;-81
2021/03/10 04:00:22;;;;;;;32.67;15.67;;;1.70;97.30;;;;;;5061135;28;20414;-82
2021/03/10 04:02:48;;;;;;;38.17;15.17;;;1.70;97.30;;;;;;5061155;28;20425;-81
2021/03/10 04:05:15;;;;;;;40.50;16.23;;;1.70;97.30;;;;;;5061569;28;20436;-82
2021/03/10 04:07:58;;;;;;;35.50;15.60;;;1.80;97.30;;;;;;5069052;28;20231;-81
2021/03/10 04:10:37;;;;;;;37.07;15.40;;;1.80;97.30;;;;;;5077772;28;20943;-81
2021/03/10 04:13:03;;;;;;;38.47;15.60;;;1.80;97.30;;;;;;5079084;28;21176;-80
2021/03/10 04:15:30;;;;;;;39.53;16.73;;;1.80;97.30;;;;;;5079050;28;20509;-82
2021/03/10 04:17:56;;;;;;;35.27;15.30;;;1.80;97.30;;;;;;5076556;28;20413;-82
2021/03/10 04:20:23;;;;;;;36.73;16.87;;;1.80;97.30;;;;;;5065299;28;20430;-81
2021/03/10 04:22:49;;;;;;;36.53;15.40;;;1.80;97.30;;;;;;5065190;28;20805;-82
2021/03/10 04:25:15;;;;;;;38.47;15.10;;;1.80;97.30;;;;;;5065377;28;20449;-82
2021/03/10 04:27:42;;;;;;;35.07;16.30;;;1.70;97.30;;;;;;5064370;28;20462;-81
2021/03/10 04:30:09;;;;;;;39.27;15.93;;;1.80;97.30;;;;;;5064400;28;20419;-81
2021/03/10 04:32:35;;;;;;;41.13;16.87;;;1.80;97.30;;;;;;5065407;28;20441;-81
2021/03/10 04:35:01;;;;;;;42.43;17.70;;;1.70;97.30;;;;;;5064366;28;20811;-81
2021/03/10 04:37:27;;;;;;;39.87;16.63;;;1.70;97.30;;;;;;5066173;28;20422;-81
2021/03/10 04:39:55;;;;;;;34.13;16.70;;;1.60;97.30;;;;;;5064783;28;20183;-81
2021/03/10 04:42:20;;;;;;;37.97;17.60;;;1.50;97.30;;;;;;5065702;28;20172;-81
2021/03/10 04:44:46;;;;;;;38.87;16.67;;;1.50;97.30;;;;;;5066230;28;20861;-81
2021/03/10 04:47:12;;;;;;;42.20;19.17;;;1.50;97.30;;;;;;5065111;28;20199;-81
2021/03/10 04:49:37;;;;;;;42.80;20.57;;;1.50;97.30;;;;;;5065132;28;20578;-82
2021/03/10 04:52:03;;;;;;;51.60;21.30;;;1.60;97.30;;;;;;5065706;28;20172;-81
2021/03/10 04:54:29;;;;;;;46.80;19.37;;;1.60;97.30;;;;;;5065009;28;20196;-82
2021/03/10 04:56:54;;;;;;;39.00;18.10;;;1.70;97.30;;;;;;5065525;28;20433;-82
2021/03/10 04:59:20;;;;;;;45.80;18.97;;;1.70;97.30;;;;;;5064053;28;20682;-81
2021/03/10 05:01:45;;;;;;;46.80;19.70;;;1.70;97.30;;;;;;5064202;28;20275;-81
2021/03/10 05:04:11;;;;;;;41.67;19.87;;;1.70;97.30;;;;;;5063693;28;20211;-81
2021/03/10 05:06:37;;;;;;;43.13;18.33;;;1.70;97.30;;;;;;5061354;28;20273;-82
2021/03/10 05:09:05;;;;;;;48.03;18.97;;;1.70;97.30;;;;;;5045592;28;20183;-81
2021/03/10 05:11:34;;;;;;;46.93;18.40;;;1.70;97.30;;;;;;5045724;28;20173;-82
2021/03/10 05:14:00;;;;;;;43.73;19.83;;;1.80;97.30;;;;;;5027369;28;20415;-84
2021/03/10 05:16:26;;;;;;;43.20;18.30;;;1.80;97.30;;;;;;5027063;28;21198;-82
2021/03/10 05:18:52;;;;;;;43.83;18.37;;;1.80;97.30;;;;;;5026916;28;20411;-80
2021/03/10 05:21:17;;;;;;;44.47;19.10;;;1.70;97.30;;;;;;5027674;28;20713;-82
2021/03/10 05:23:43;;;;;;;47.77;19.60;;;1.70;97.30;;;;;;5026874;28;20276;-81
2021/03/10 05:26:18;;;;;;;48.70;19.40;;;1.80;97.30;;;;;;5027143;28;20199;-82
2021/03/10 05:28:43;;;;;;;38.87;19.13;;;1.80;97.30;;;;;;5027121;28;20184;-81
2021/03/10 05:31:09;;;;;;;44.07;19.50;;;1.80;97.30;;;;;;5025788;28;20413;-81
2021/03/10 05:33:35;;;;;;;43.50;18.97;;;1.80;97.30;;;;;;5026570;28;20866;-81
2021/03/10 05:36:02;;;;;;;50.97;21.47;;;1.80;97.30;;;;;;5026552;28;20410;-81
2021/03/10 05:38:30;;;;;;;49.30;21.63;;;1.80;97.30;;;;;;5027017;28;20433;-83
2021/03/10 05:40:57;;;;;;;43.80;20.63;;;1.90;97.30;;;;;;5027630;28;20443;-83
2021/03/10 05:43:23;;;;;;;42.93;19.70;;;1.90;97.30;;;;;;5045813;28;20450;-81
2021/03/10 05:45:49;;;;;;;47.87;19.33;;;1.90;97.30;;;;;;5027531;28;20474;-81
2021/03/10 05:48:14;;;;;;;48.97;20.17;;;1.90;97.30;;;;;;5027871;28;20462;-81
2021/03/10 05:50:40;;;;;;;45.77;20.17;;;1.90;97.30;;;;;;5028178;28;20176;-81
2021/03/10 05:53:09;;;;;;;43.37;19.60;;;1.90;97.30;;;;;;5027676;28;20200;-82
2021/03/10 05:55:37;;;;;;;46.67;19.77;;;1.90;97.30;;;;;;5027923;28;20196;-81
2021/03/10 05:58:09;;;;;;;50.27;22.20;;;1.90;97.30;;;;;;5027620;28;20415;-81
2021/03/10 06:00:34;;;;;;;48.50;19.20;;;1.90;97.30;;;;;;5026121;28;20407;-80
2021/03/10 06:03:00;;;;;;;48.77;19.87;;;1.90;97.30;;;;;;5026333;28;20949;-81
2021/03/10 06:05:26;;;;;;;46.47;18.97;;;1.90;97.30;;;;;;5026417;28;20250;-82
2021/03/10 06:08:17;;;;;;;44.43;18.13;;;1.90;97.30;;;;;;5049487;28;20486;-80
2021/03/10 06:10:45;;;;;;;47.63;19.37;;;1.90;97.30;;;;;;5064044;28;20201;-82
2021/03/10 06:13:24;;;;;;;46.70;20.50;;;1.90;97.30;;;;;;5062833;28;20418;-81
2021/03/10 06:15:52;;;;;;;48.33;19.47;;;2.00;97.30;;;;;;5052880;28;20430;-81
2021/03/10 06:18:30;;;;;;;50.40;20.73;;;2.00;97.30;;;;;;5057491;28;20433;-82
2021/03/10 06:21:08;;;;;;;44.40;18.87;;;2.00;97.30;;;;;;5064102;28;20410;-81
2021/03/10 06:23:36;;;;;;;45.67;19.90;;;2.00;97.30;;;;;;5068394;28;20464;-82
2021/03/10 06:26:04;;;;;;;46.60;19.47;;;2.00;97.30;;;;;;5056816;28;20427;-83
2021/03/10 06:28:44;;;;;;;42.40;18.70;;;2.00;97.30;;;;;;5046516;28;20512;-82
2021/03/10 06:31:31;;;;;;;44.73;19.27;;;2.10;97.30;;;;;;5042271;28;20465;-81
2021/03/10 06:34:03;;;;;;;35.43;18.40;;;2.10;97.30;;;;;;5038185;28;20395;-81
2021/03/10 06:36:30;;;;;;;50.13;19.30;;;2.20;97.30;;;;;;5038810;28;20411;-82
2021/03/10 06:38:56;;;;;;;52.63;21.00;;;2.20;97.30;;;;;;5039869;28;20415;-81
2021/03/10 06:41:40;;;;;;;42.60;19.23;;;2.20;97.30;;;;;;5039346;28;20413;-82
2021/03/10 06:44:28;;;;;;;43.40;19.20;;;2.30;97.30;;;;;;5039776;28;20439;-81
2021/03/10 06:47:01;;;;;;;45.53;19.53;;;2.30;97.30;;;;;;5040333;28;20460;-81
2021/03/10 06:49:29;;;;;;;49.10;19.50;;;2.40;97.30;;;;;;5039351;28;20414;-81
2021/03/10 06:52:03;;;;;;;57.67;21.00;;;2.40;97.30;;;;;;5039969;28;20415;-82
2021/03/10 06:54:30;;;;;;;54.20;22.00;;;2.50;97.30;;;;;;5039437;28;20439;-81
2021/03/10 06:56:59;;;;;;;47.80;20.37;;;2.50;97.30;;;;;;5039756;28;20449;-82
2021/03/10 06:59:24;;;;;;;50.10;23.70;;;2.60;97.30;;;;;;5039946;28;20433;-81
2021/03/10 07:01:50;;;;;;;46.07;21.07;;;2.60;97.30;;;;;;5041775;28;20474;-81
2021/03/10 07:04:16;;;;;;;52.37;21.77;;;2.70;97.30;;;;;;5040665;28;20196;-81
2021/03/10 07:06:44;;;;;;;48.73;22.17;;;2.70;97.30;;;;;;5040198;28;20224;-80
2021/03/10 07:09:13;;;;;;;52.77;21.60;;;2.80;97.30;;;;;;5040722;28;20161;-81
2021/03/10 07:11:42;;;;;;;43.77;20.37;;;2.80;97.30;;;;;;5041035;28;20446;-81
2021/03/10 07:14:10;;;;;;;45.37;20.07;;;2.90;97.30;;;;;;5039241;28;20504;-82
2021/03/10 07:16:36;;;;;;;59.27;22.20;;;2.90;97.30;;;;;;5039123;28;20404;-81
2021/03/10 07:19:05;;;;;;;46.87;20.87;;;3.00;97.30;;;;;;5038069;28;20499;-82
2021/03/10 07:21:36;;;;;;;46.17;20.20;;;3.10;97.30;;;;;;5036404;28;20184;-81
2021/03/10 07:24:03;;;;;;;54.83;22.40;;;3.20;97.30;;;;;;5034728;28;20443;-83
2021/03/10 07:26:30;;;;;;;52.30;21.00;;;3.30;97.30;;;;;;5034367;28;20418;-81
2021/03/10 07:29:02;;;;;;;45.50;21.57;;;3.40;97.30;;;;;;5040861;28;20425;-81
2021/03/10 07:31:28;;;;;;;45.77;21.87;;;3.40;97.30;;;;;;5042779;28;20840;-81
2021/03/10 07:33:55;;;;;;;48.70;22.70;;;3.50;97.30;;;;;;5042300;28;20418;-81
2021/03/10 07:36:35;;;;;;;52.83;23.17;;;3.60;97.30;;;;;;5042645;28;20411;-81
2021/03/10 07:39:00;;;;;;;45.43;19.23;;;3.80;97.30;;;;;;5042276;28;20495;-81
2021/03/10 07:41:38;;;;;;;47.20;21.30;;;3.90;97.30;;;;;;5041813;28;20411;-82
2021/03/10 07:44:15;;;;;;;50.70;21.13;;;4.00;97.30;;;;;;5041704;28;20289;-81
2021/03/10 07:46:41;;;;;;;51.03;22.70;;;4.10;97.30;;;;;;5041279;28;20458;-82
2021/03/10 07:49:23;;;;;;;42.87;20.10;;;4.30;97.30;;;;;;5041333;28;20424;-82
2021/03/10 07:52:02;;;;;;;51.03;21.23;;;4.40;97.30;;;;;;5041301;28;20438;-82
2021/03/10 07:54:28;;;;;;;41.07;19.10;;;4.50;97.30;;;;;;5041234;28;20534;-81
2021/03/10 07:57:10;;;;;;;48.97;21.27;;;4.60;97.30;;;;;;5044486;28;20419;-81
2021/03/10 07:59:55;;;;;;;50.83;22.27;;;4.70;97.30;;;;;;5044468;28;20263;-81
2021/03/10 08:02:22;;;;;;;46.10;20.93;;;4.90;97.30;;;;;;5045377;28;20448;-81
2021/03/10 08:05:02;;;;;;;49.93;22.27;;;5.00;97.30;;;;;;5043636;28;20438;-82
2021/03/10 08:07:31;;;;;;;54.20;23.77;;;5.00;97.30;;;;;;5043947;28;20471;-82
2021/03/10 08:09:58;;;;;;;49.83;20.20;;;5.00;97.30;;;;;;5042540;28;20407;-82
2021/03/10 08:12:38;;;;;;;53.20;22.57;;;5.00;97.30;;;;;;5038511;28;20411;-82
2021/03/10 08:15:06;;;;;;;45.07;20.77;;;5.00;97.30;;;;;;5044458;28;20477;-81
2021/03/10 08:17:32;;;;;;;49.40;21.63;;;5.00;97.30;;;;;;5043390;28;20981;-82
2021/03/10 08:20:05;;;;;;;54.17;22.53;;;5.00;97.30;;;;;;5042158;28;20407;-82
2021/03/10 08:22:32;;;;;;;46.67;21.30;;;5.00;97.30;;;;;;5043042;28;20504;-81
2021/03/10 08:25:00;;;;;;;49.73;21.07;;;5.00;97.30;;;;;;5043128;28;20446;-81
2021/03/10 08:27:33;;;;;;;51.03;23.90;;;5.10;97.30;;;;;;5043693;28;20467;-82
2021/03/10 08:29:59;;;;;;;50.57;23.03;;;5.20;97.30;;;;;;5043220;28;20420;-82
2021/03/10 08:32:33;;;;;;;49.90;22.60;;;5.30;97.30;;;;;;5043012;28;20430;-81
2021/03/10 08:35:12;;;;;;;52.50;23.00;;;5.30;97.30;;;;;;5042860;28;20493;-82
2021/03/10 08:37:39;;;;;;;55.73;24.20;;;5.20;97.30;;;;;;5043981;28;20422;-83
2021/03/10 08:40:06;;;;;;;50.57;22.87;;;5.30;97.30;;;;;;5043980;28;20422;-82
2021/03/10 08:42:32;;;;;;;53.47;23.00;;;5.60;97.30;;;;;;5043992;28;20419;-81
2021/03/10 08:44:57;;;;;;;52.17;22.00;;;5.80;97.30;;;;;;5045720;28;20476;-81
2021/03/10 08:47:25;;;;;;;46.93;21.80;;;6.10;97.30;;;;;;5056348;28;20192;-81
2021/03/10 08:49:57;;;;;;;43.97;21.37;;;6.30;97.30;;;;;;5063708;28;20670;-82
2021/03/10 08:52:24;;;;;;;48.33;20.87;;;6.30;97.30;;;;;;5059321;28;20505;-81
2021/03/10 08:54:59;;;;;;;50.53;21.37;;;6.30;97.30;;;;;;5066495;28;20464;-81
2021/03/10 08:57:28;;;;;;;45.53;21.20;;;6.30;97.30;;;;;;5065252;28;20781;-82
2021/03/10 08:59:54;;;;;;;46.33;22.73;;;6.50;97.30;;;;;;5060641;28;20448;-82
2021/03/10 09:02:31;;;;;;;53.30;23.10;;;6.70;97.30;;;;;;5061445;28;20416;-82
2021/03/10 09:04:58;;;;;;;51.27;22.03;;;6.80;97.30;;;;;;5064971;28;20438;-81
2021/03/10 09:07:24;;;;;;;50.10;23.03;;;6.90;97.30;;;;;;5065633;28;20474;-81
2021/03/10 09:09:58;;;;;;;41.03;20.20;;;6.90;97.30;;;;;;5055748;28;20414;-80
2021/03/10 09:12:25;;;;;;;43.07;21.03;;;6.90;97.30;;;;;;5060162;28;20472;-81
2021/03/10 09:14:51;;;;;;;40.93;19.90;;;6.90;97.30;;;;;;5064403;28;21133;-84
2021/03/10 09:17:17;;;;;;;45.97;21.70;;;6.90;97.30;;;;;;5061760;28;20414;-82
2021/03/10 09:19:48;;;;;;;47.17;21.90;;;7.10;97.30;;;;;;5064704;28;20176;-82
2021/03/10 09:22:15;;;;;;;46.10;22.00;;;7.00;97.30;;;;;;5053767;28;20175;-81
2021/03/10 09:24:58;;;;;;;47.40;22.27;;;6.90;97.30;;;;;;5057938;28;20506;-82
2021/03/10 09:27:29;;;;;;;52.87;22.47;;;6.80;97.30;;;;;;5060113;28;20453;-80
2021/03/10 09:30:00;;;;;;;47.87;21.00;;;7.00;97.30;;;;;;5062967;28;20442;-81
2021/03/10 09:32:41;;;;;;;53.40;23.33;;;6.90;97.30;;;;;;5063759;28;21016;-81
2021/03/10 09:35:36;;;;;;;45.93;21.43;;;6.90;97.30;;;;;;5062611;28;20465;-82
2021/03/10 09:38:05;;;;;;;46.10;21.37;;;6.60;97.30;;;;;;5061866;28;20515;-81
2021/03/10 09:40:49;;;;;;;44.07;20.80;;;6.70;97.30;;;;;;5063614;28;20415;-80
2021/03/10 09:43:21;;;;;;;46.03;21.90;;;6.70;97.30;;;;;;5063197;28;20572;-80
2021/03/10 09:45:48;;;;;;;53.33;22.70;;;6.60;97.30;;;;;;5063785;28;20430;-81
2021/03/10 09:48:26;;;;;;;42.60;21.57;;;6.60;97.30;;;;;;5044273;28;20514;-80
2021/03/10 09:51:00;;;;;;;43.63;22.43;;;6.60;97.30;;;;;;5044545;28;20423;-81
2021/03/10 09:53:26;;;;;;;48.60;20.80;;;6.70;97.30;;;;;;5043926;28;20447;-81
2021/03/10 09:56:05;;;;;;;49.10;22.00;;;6.70;97.30;;;;;;5042941;28;20439;-80
2021/03/10 09:58:31;;;;;;;50.60;21.93;;;6.80;97.30;;;;;;5043681;28;20200;-81
2021/03/10 10:01:00;;;;;;;37.90;19.83;;;6.90;97.30;;;;;;5042944;28;20428;-81
2021/03/10 10:03:27;;;;;;;49.83;21.87;;;6.90;97.30;;;;;;5042244;28;20196;-81
2021/03/10 10:06:07;;;;;;;47.27;22.00;;;6.90;97.30;;;;;;5043224;28;20443;-81
2021/03/10 10:08:38;;;;;;;44.97;21.57;;;6.90;97.30;;;;;;5042700;28;20482;-81
2021/03/10 10:11:04;;;;;;;47.97;21.20;;;7.10;97.30;;;;;;5042459;28;20415;-81
2021/03/10 10:13:29;;;;;;;52.20;22.20;;;7.10;97.30;;;;;;5043638;28;20831;-82
2021/03/10 10:15:55;;;;;;;43.47;20.33;;;7.10;97.30;;;;;;5041406;28;20435;-81
2021/03/10 10:18:22;;;;;;;48.00;22.57;;;7.10;97.30;;;;;;5042319;28;20176;-81
2021/03/10 10:20:48;;;;;;;45.30;21.57;;;7.10;97.30;;;;;;5042171;28;20176;-82
2021/03/10 10:23:13;;;;;;;48.63;22.50;;;7.10;97.30;;;;;;5041453;28;20423;-80
2021/03/10 10:25:39;;;;;;;48.73;20.50;;;7.10;97.30;;;;;;5041300;28;20251;-81
2021/03/10 10:28:05;;;;;;;50.90;22.50;;;7.00;97.30;;;;;;5040416;28;20207;-83
2021/03/10 10:30:30;;;;;;;49.10;22.10;;;6.90;97.30;;;;;;5040365;28;20310;-82
2021/03/10 10:32:56;;;;;;;43.53;20.33;;;6.90;97.30;;;;;;5041389;28;20176;-81
2021/03/10 10:35:24;;;;;;;50.70;22.20;;;6.80;97.30;;;;;;5041467;28;20219;-81
2021/03/10 10:37:50;;;;;;;38.10;19.73;;;6.80;97.30;;;;;;5040120;28;20176;-81
2021/03/10 10:40:20;;;;;;;44.57;20.67;;;6.70;97.30;;;;;;5039993;28;20784;-82
2021/03/10 10:42:47;;;;;;;43.63;20.37;;;6.70;97.30;;;;;;5031393;28;20272;-81
2021/03/10 10:45:13;;;;;;;45.20;20.67;;;6.70;97.30;;;;;;5040908;28;20431;-80
2021/03/10 10:47:40;;;;;;;44.73;20.80;;;6.70;97.30;;;;;;5053335;28;20454;-80
2021/03/10 10:50:07;;;;;;;42.00;19.30;;;6.90;97.30;;;;;;5059434;28;20460;-81
2021/03/10 10:52:36;;;;;;;43.50;20.60;;;7.10;97.10;;;;;;5053835;28;20497;-80
2021/03/10 10:55:05;;;;;;;42.00;19.47;;;7.50;97.30;;;;;;5050182;22;20509;-71
2021/03/10 10:57:31;;;;;;;38.57;18.43;;;7.90;96.80;;;;;;5030538;28;20399;-71
2021/03/10 10:59:57;;;;;;;35.27;17.77;;;8.40;95.90;;;;;;5029888;28;20835;-71
2021/03/10 11:02:22;;;;;;;37.60;18.13;;;8.50;92.80;;;;;;5030149;28;20393;-71
2021/03/10 11:04:48;;;;;;;40.23;18.60;;;8.70;92.00;;;;;;5029292;28;20177;-71
2021/03/10 11:07:14;;;;;;;37.33;18.33;;;8.80;92.50;;;;;;5031355;28;20212;-71
2021/03/10 11:09:40;;;;;;;35.20;17.90;;;8.90;92.30;;;;;;5028886;28;20219;-71
2021/03/10 11:12:11;;;;;;;40.23;19.23;;;8.90;90.60;;;;;;5029010;28;20203;-71
2021/03/10 11:14:38;;;;;;;35.60;18.07;;;8.70;89.90;;;;;;5030032;28;20514;-72
2021/03/10 11:17:04;;;;;;;38.27;18.47;;;8.60;90.80;;;;;;5030126;28;20410;-72
2021/03/10 11:19:30;;;;;;;35.97;19.00;;;8.50;90.90;;;;;;5030251;28;20541;-71
2021/03/10 11:21:56;;;;;;;37.57;19.30;;;8.30;91.20;;;;;;5030317;28;20431;-72
2021/03/10 11:24:21;;;;;;;38.03;18.30;;;8.20;91.40;;;;;;5028856;28;20172;-71
2021/03/10 11:26:48;;;;;;;39.87;18.77;;;8.30;92.00;;;;;;5029230;28;20236;-71
2021/03/10 11:29:13;;;;;;;40.13;18.80;;;8.30;91.80;;;;;;5032739;28;20207;-71
2021/03/10 11:31:40;;;;;;;40.47;18.50;;;8.40;91.60;;;;;;5034760;28;20759;-71
2021/03/10 11:34:06;;;;;;;37.03;18.20;;;8.40;91.10;;;;;;5034306;28;20175;-72
2021/03/10 11:36:31;;;;;;;38.40;18.73;;;8.30;91.00;;;;;;5034552;28;20411;-71
2021/03/10 11:38:57;;;;;;;38.07;18.67;;;8.50;91.30;;;;;;5034635;28;20169;-72
2021/03/10 11:41:23;;;;;;;35.43;19.03;;;8.70;91.30;;;;;;5032839;28;20200;-71
2021/03/10 11:43:49;;;;;;;37.80;19.10;;;8.90;91.10;;;;;;5033175;28;20574;-71
2021/03/10 11:46:14;;;;;;;36.43;19.47;;;9.10;90.60;;;;;;5032916;28;20181;-71
2021/03/10 11:48:40;;;;;;;42.77;20.00;;;9.10;90.40;;;;;;5032304;28;20782;-71
2021/03/10 11:51:07;;;;;;;35.13;18.27;;;9.20;90.50;;;;;;5033173;28;20197;-72
2021/03/10 11:53:33;;;;;;;39.80;19.80;;;9.10;89.70;;;;;;5032942;28;20172;-72
2021/03/10 11:55:58;;;;;;;38.10;18.83;;;9.00;89.60;;;;;;5032215;28;20516;-72
2021/03/10 11:58:27;;;;;;;34.40;18.27;;;9.00;89.80;;;;;;5032483;28;20177;-72
2021/03/10 12:00:54;;;;;;;38.40;18.90;;;9.20;90.60;;;;;;5032826;28;20232;-72
2021/03/10 12:03:19;;;;;;;38.83;19.70;;;9.30;89.90;;;;;;5032060;28;20411;-72
2021/03/10 12:05:45;;;;;;;35.00;19.30;;;9.20;88.50;;;;;;5033623;28;20414;-71
2021/03/10 12:08:11;;;;;;;45.90;20.40;;;9.30;89.60;;;;;;5032833;28;20223;-71
2021/03/10 12:10:41;;;;;;;38.90;19.90;;;9.20;88.90;;;;;;5032204;28;20188;-72
2021/03/10 12:13:08;;;;;;;36.30;19.27;;;9.40;90.10;;;;;;5032177;28;20274;-71
2021/03/10 12:15:34;;;;;;;35.17;18.10;;;9.70;89.50;;;;;;5032657;28;20490;-72
2021/03/10 12:18:00;;;;;;;38.60;19.07;;;10.00;87.80;;;;;;5031636;28;20506;-72
2021/03/10 12:20:26;;;;;;;34.07;17.40;;;10.30;87.60;;;;;;5032268;28;20609;-72
2021/03/10 12:22:51;;;;;;;32.67;17.83;;;10.60;86.60;;;;;;5032637;28;20223;-72
2021/03/10 12:25:17;;;;;;;35.30;17.80;;;10.60;84.80;;;;;;5031997;28;20461;-72
2021/03/10 12:27:43;;;;;;;34.83;18.67;;;10.50;85.00;;;;;;5033136;28;20192;-72
2021/03/10 12:30:09;;;;;;;35.70;19.00;;;10.30;85.10;;;;;;5034204;28;20603;-71
2021/03/10 12:32:37;;;;;;;36.53;19.37;;;9.50;85.50;;;;;;5038693;28;20427;-72
2021/03/10 12:35:03;;;;;;;34.53;17.87;;;9.10;88.10;;;;;;5041772;28;20489;-72
2021/03/10 12:37:29;;;;;;;36.03;18.23;;;9.10;87.50;;;;;;5036292;28;20415;-72
2021/03/10 12:39:55;;;;;;;30.43;17.10;;;9.00;87.70;;;;;;5031683;28;20465;-72
2021/03/10 12:42:21;;;;;;;35.43;18.30;;;8.90;87.70;;;;;;5033740;28;20608;-72